Time;durP1;ratioP1;P1;durP2;ratioP2;P2;SDS_P1;SDS_P2;PMS_P1;PMS_P2;Temp;Humidity;BMP_temperature;BMP_pressure;BME280_temperature;BME280_humidity;BME280_pressure;Samples;Min_cycle;Max_cycle;Signal;HPM_P1;HPM_P2
2023/07/03 00:00:45;;;;;;;2.23;2.07;;;13.90;99.90;;;;;;5074318;28;20182;-70
2023/07/03 00:03:14;;;;;;;1.63;1.43;;;13.80;99.90;;;;;;5074045;28;20213;-70
2023/07/03 00:05:47;;;;;;;1.40;1.40;;;13.90;99.90;;;;;;5074180;28;20628;-71
2023/07/03 00:08:14;;;;;;;2.37;1.60;;;13.90;99.90;;;;;;5074482;28;20880;-70
2023/07/03 00:10:40;;;;;;;3.80;2.17;;;13.90;99.90;;;;;;5074149;28;20435;-70
2023/07/03 00:13:07;;;;;;;2.00;1.87;;;13.80;99.90;;;;;;5073831;28;21013;-70
2023/07/03 00:15:32;;;;;;;3.23;2.20;;;13.90;99.90;;;;;;5074186;28;20887;-70
2023/07/03 00:17:58;;;;;;;3.07;2.47;;;13.90;99.90;;;;;;5074137;28;20403;-70
2023/07/03 00:20:27;;;;;;;2.70;2.50;;;13.90;99.90;;;;;;5073736;28;20189;-70
2023/07/03 00:22:53;;;;;;;4.50;2.50;;;13.90;99.90;;;;;;5073795;28;20230;-69
2023/07/03 00:25:19;;;;;;;1.00;0.80;;;13.90;99.90;;;;;;5073923;28;20447;-70
2023/07/03 00:27:46;;;;;;;2.23;2.00;;;13.80;99.90;;;;;;5073762;28;20554;-70
2023/07/03 00:30:12;;;;;;;4.57;1.80;;;13.70;99.90;;;;;;5073791;28;20713;-69
2023/07/03 00:32:38;;;;;;;1.67;1.57;;;13.70;99.90;;;;;;5073481;28;20483;-70
2023/07/03 00:35:04;;;;;;;3.77;2.53;;;13.70;99.90;;;;;;5073668;28;20435;-69
2023/07/03 00:37:30;;;;;;;1.27;1.27;;;13.70;99.90;;;;;;5073726;28;20196;-70
2023/07/03 00:39:56;;;;;;;2.87;2.03;;;13.70;99.90;;;;;;5073517;28;20463;-70
2023/07/03 00:42:28;;;;;;;13.73;3.87;;;13.70;99.90;;;;;;5073403;28;20435;-70
2023/07/03 00:44:54;;;;;;;1.93;1.57;;;13.80;99.90;;;;;;5073384;28;20577;-70
2023/07/03 00:47:21;;;;;;;2.43;2.30;;;13.70;99.90;;;;;;5073920;28;20448;-70
2023/07/03 00:49:48;;;;;;;4.77;1.73;;;13.70;99.90;;;;;;5073323;28;20229;-70
2023/07/03 00:52:14;;;;;;;1.40;1.30;;;13.70;99.90;;;;;;5073363;28;20395;-71
2023/07/03 00:54:40;;;;;;;3.77;3.33;;;13.70;99.90;;;;;;5073626;28;20426;-70
2023/07/03 00:57:09;;;;;;;1.77;1.70;;;13.80;99.90;;;;;;5073667;28;20403;-70
2023/07/03 00:59:35;;;;;;;1.33;0.97;;;13.70;99.90;;;;;;5073402;28;20203;-70
2023/07/03 01:02:04;;;;;;;2.83;2.40;;;13.60;99.90;;;;;;5073219;28;20409;-70
2023/07/03 01:04:39;;;;;;;2.13;1.97;;;13.60;99.90;;;;;;5073378;28;20643;-70
2023/07/03 01:07:13;;;;;;;5.30;3.33;;;13.60;99.90;;;;;;5073361;28;20450;-70
2023/07/03 01:09:47;;;;;;;6.20;2.00;;;13.60;99.90;;;;;;5073536;28;20416;-70
2023/07/03 01:12:13;;;;;;;3.13;1.60;;;13.50;99.90;;;;;;5073108;28;20384;-70
2023/07/03 01:14:41;;;;;;;1.47;1.20;;;13.50;99.90;;;;;;5073475;28;20406;-69
2023/07/03 01:17:10;;;;;;;1.67;1.17;;;13.50;99.90;;;;;;5073482;28;20412;-69
2023/07/03 01:19:38;;;;;;;1.53;1.43;;;13.50;99.90;;;;;;5073460;28;20473;-69
2023/07/03 01:22:32;;;;;;;3.00;2.70;;;13.60;99.90;;;;;;5073116;28;20424;-71
2023/07/03 01:25:08;;;;;;;6.00;2.87;;;13.50;99.90;;;;;;5073818;28;20453;-70
2023/07/03 01:27:38;;;;;;;1.60;1.50;;;13.40;99.90;;;;;;5073225;28;20537;-70
2023/07/03 01:30:07;;;;;;;1.67;1.50;;;13.40;99.90;;;;;;5073114;28;20451;-70
2023/07/03 01:32:34;;;;;;;4.67;3.30;;;13.40;99.90;;;;;;5072852;28;20392;-69
2023/07/03 01:35:03;;;;;;;2.37;2.20;;;13.40;99.90;;;;;;5073046;28;20395;-70
2023/07/03 01:37:31;;;;;;;3.27;2.97;;;13.40;99.90;;;;;;5073262;28;20400;-70
2023/07/03 01:39:59;;;;;;;1.50;1.40;;;13.40;99.90;;;;;;5072987;28;20849;-70
2023/07/03 01:42:28;;;;;;;1.73;1.50;;;13.40;99.90;;;;;;5072908;28;20439;-70
2023/07/03 01:44:53;;;;;;;1.57;0.97;;;13.30;99.90;;;;;;5073075;28;20454;-69
2023/07/03 01:47:20;;;;;;;1.00;1.00;;;13.30;99.90;;;;;;5073075;28;20443;-70
2023/07/03 01:49:46;;;;;;;4.67;1.87;;;13.30;99.90;;;;;;5072634;28;20484;-69
2023/07/03 01:52:18;;;;;;;2.53;1.50;;;13.30;99.90;;;;;;5072771;28;20399;-70
2023/07/03 01:55:07;;;;;;;2.17;1.97;;;13.20;99.90;;;;;;5073100;28;20875;-70
2023/07/03 01:57:44;;;;;;;0.97;0.97;;;13.20;99.90;;;;;;5075062;28;20415;-69
2023/07/03 02:00:14;;;;;;;1.13;1.03;;;13.30;99.90;;;;;;5076555;28;20476;-69
2023/07/03 02:02:45;;;;;;;2.00;1.90;;;13.30;99.90;;;;;;5076394;28;20400;-69
2023/07/03 02:05:16;;;;;;;2.17;2.07;;;13.30;99.90;;;;;;5076604;28;20491;-70
2023/07/03 02:07:45;;;;;;;2.60;2.40;;;13.20;99.90;;;;;;5076811;28;20817;-70
2023/07/03 02:10:11;;;;;;;1.90;1.37;;;13.20;99.90;;;;;;5076489;28;20424;-70
2023/07/03 02:12:36;;;;;;;3.20;2.30;;;13.20;99.90;;;;;;5076146;28;20404;-70
2023/07/03 02:15:04;;;;;;;1.70;1.60;;;13.30;99.90;;;;;;5076319;28;20796;-70
2023/07/03 02:17:30;;;;;;;6.67;4.00;;;13.20;99.90;;;;;;5076312;28;20194;-69
2023/07/03 02:19:56;;;;;;;1.77;1.67;;;13.20;99.90;;;;;;5076198;28;20475;-70
2023/07/03 02:22:21;;;;;;;4.03;2.70;;;13.20;99.90;;;;;;5076222;28;20794;-70
2023/07/03 02:24:47;;;;;;;1.33;1.20;;;13.20;99.90;;;;;;5076166;28;20408;-69
2023/07/03 02:27:13;;;;;;;1.90;1.80;;;13.20;99.90;;;;;;5076205;28;20224;-70
2023/07/03 02:29:39;;;;;;;4.03;3.73;;;13.20;99.90;;;;;;5076107;28;20942;-70
2023/07/03 02:32:09;;;;;;;2.50;2.30;;;13.10;99.90;;;;;;5075854;28;20249;-70
2023/07/03 02:34:35;;;;;;;10.60;2.07;;;13.20;99.90;;;;;;5076059;28;20166;-70
2023/07/03 02:37:01;;;;;;;0.77;0.77;;;13.30;99.90;;;;;;5076105;28;20852;-70
2023/07/03 02:39:27;;;;;;;2.50;1.37;;;13.30;99.90;;;;;;5076080;28;20471;-69
2023/07/03 02:41:52;;;;;;;2.20;2.10;;;13.30;99.90;;;;;;5075631;28;20286;-70
2023/07/03 02:44:18;;;;;;;2.93;1.17;;;13.30;99.90;;;;;;5075829;28;20407;-70
2023/07/03 02:46:44;;;;;;;2.67;1.07;;;13.30;99.90;;;;;;5075774;28;20563;-70
2023/07/03 02:49:10;;;;;;;5.73;2.50;;;13.50;99.90;;;;;;5075754;28;20232;-69
2023/07/03 02:51:35;;;;;;;3.13;2.20;;;13.30;99.90;;;;;;5075547;28;20529;-70
2023/07/03 02:54:04;;;;;;;3.57;2.27;;;13.30;99.90;;;;;;5075531;28;20177;-71
2023/07/03 02:56:29;;;;;;;1.90;1.80;;;13.40;99.90;;;;;;5075125;28;20630;-69
2023/07/03 02:58:55;;;;;;;2.10;1.90;;;13.30;99.90;;;;;;5075266;28;20415;-69
2023/07/03 03:01:21;;;;;;;7.03;3.03;;;13.50;99.90;;;;;;5075233;28;20169;-70
2023/07/03 03:03:47;;;;;;;3.93;1.67;;;13.50;99.90;;;;;;5075198;28;20524;-70
2023/07/03 03:06:12;;;;;;;1.30;1.30;;;13.50;99.90;;;;;;5075136;28;20419;-70
2023/07/03 03:08:38;;;;;;;3.00;2.80;;;13.40;99.90;;;;;;5074465;28;20205;-69
2023/07/03 03:11:04;;;;;;;1.40;1.30;;;13.40;99.90;;;;;;5074893;28;20315;-70
2023/07/03 03:13:30;;;;;;;6.93;4.53;;;13.40;99.90;;;;;;5074944;28;20882;-70
2023/07/03 03:15:56;;;;;;;3.97;3.60;;;13.40;99.90;;;;;;5074944;28;20407;-70
2023/07/03 03:18:22;;;;;;;5.30;1.47;;;13.50;99.90;;;;;;5074790;28;20341;-69
2023/07/03 03:20:47;;;;;;;3.70;1.40;;;13.50;99.90;;;;;;5074950;28;20192;-70
2023/07/03 03:23:13;;;;;;;1.47;1.30;;;13.40;99.90;;;;;;5074826;28;20403;-70
2023/07/03 03:25:39;;;;;;;8.97;2.77;;;13.40;99.90;;;;;;5075200;28;20512;-71
2023/07/03 03:28:05;;;;;;;1.40;1.30;;;13.40;99.90;;;;;;5074930;28;20446;-71
2023/07/03 03:30:32;;;;;;;1.40;1.30;;;13.40;99.90;;;;;;5074797;28;20596;-69
2023/07/03 03:32:58;;;;;;;1.70;1.47;;;13.30;99.90;;;;;;5074822;28;20436;-69
2023/07/03 03:35:24;;;;;;;1.47;1.23;;;13.30;99.90;;;;;;5069493;28;20949;-70
2023/07/03 03:37:50;;;;;;;3.60;2.93;;;13.30;99.90;;;;;;5074775;28;20407;-70
2023/07/03 03:40:15;;;;;;;11.93;2.13;;;13.20;99.90;;;;;;5073737;28;20272;-70
2023/07/03 03:42:41;;;;;;;3.57;2.00;;;13.20;99.90;;;;;;5074316;28;20177;-70
2023/07/03 03:45:07;;;;;;;2.23;2.13;;;13.30;99.90;;;;;;5074794;28;20359;-70
2023/07/03 03:47:33;;;;;;;0.73;0.70;;;13.30;99.90;;;;;;5074521;28;20193;-70
2023/07/03 03:49:58;;;;;;;3.33;1.50;;;13.40;99.90;;;;;;5074265;28;20439;-71
2023/07/03 03:52:24;;;;;;;1.50;1.10;;;13.40;99.90;;;;;;5074451;28;20503;-70
2023/07/03 03:54:50;;;;;;;1.27;1.23;;;13.40;99.90;;;;;;5074352;28;20407;-70
2023/07/03 03:57:15;;;;;;;2.63;2.20;;;13.40;99.90;;;;;;5074461;28;20578;-70
2023/07/03 03:59:41;;;;;;;1.33;1.33;;;;;;;;;;5074339;28;20685;-70
2023/07/03 04:02:08;;;;;;;3.07;1.50;;;13.60;99.90;;;;;;5074224;28;20177;-70
2023/07/03 04:04:34;;;;;;;1.37;1.27;;;13.60;99.90;;;;;;5074171;28;20411;-70
2023/07/03 04:07:00;;;;;;;2.33;2.13;;;13.70;99.90;;;;;;5074335;28;20550;-70
2023/07/03 04:09:26;;;;;;;2.87;1.93;;;13.90;99.90;;;;;;5074134;28;20177;-70
2023/07/03 04:11:51;;;;;;;2.53;2.33;;;14.00;99.90;;;;;;5073940;28;20918;-70
2023/07/03 04:14:17;;;;;;;1.57;1.43;;;14.10;99.90;;;;;;5074175;28;20165;-70
2023/07/03 04:16:44;;;;;;;1.37;1.27;;;14.30;99.90;;;;;;5074245;28;20164;-70
2023/07/03 04:19:10;;;;;;;2.90;2.67;;;14.30;99.90;;;;;;5073863;28;20169;-69
2023/07/03 04:21:36;;;;;;;2.10;1.63;;;14.40;99.90;;;;;;5073044;28;20426;-70
2023/07/03 04:24:01;;;;;;;10.43;0.83;;;14.60;99.90;;;;;;5073899;28;20173;-69
2023/07/03 04:26:27;;;;;;;1.83;1.73;;;14.70;99.90;;;;;;5074021;28;20282;-70
2023/07/03 04:28:54;;;;;;;4.20;3.70;;;14.80;99.90;;;;;;5073768;28;20290;-69
2023/07/03 04:31:19;;;;;;;2.17;2.00;;;14.70;99.90;;;;;;5073766;28;20172;-71
2023/07/03 04:33:45;;;;;;;3.93;2.50;;;14.90;99.90;;;;;;5073819;28;20407;-71
2023/07/03 04:36:12;;;;;;;3.07;1.07;;;15.10;99.90;;;;;;5073734;28;20162;-70
2023/07/03 04:38:41;;;;;;;3.80;3.27;;;15.20;99.90;;;;;;5073747;28;20396;-70
2023/07/03 04:41:08;;;;;;;2.70;2.20;;;15.30;99.90;;;;;;5073410;28;20423;-70
2023/07/03 04:43:34;;;;;;;2.77;2.53;;;15.30;99.90;;;;;;5073712;28;20883;-70
2023/07/03 04:46:03;;;;;;;4.13;3.03;;;15.50;99.90;;;;;;5073680;28;20404;-70
2023/07/03 04:48:30;;;;;;;3.13;2.53;;;15.60;99.90;;;;;;5073704;28;20675;-70
2023/07/03 04:50:55;;;;;;;2.70;2.50;;;15.80;99.90;;;;;;5073141;28;20477;-71
2023/07/03 04:53:21;;;;;;;3.63;2.90;;;15.90;99.90;;;;;;5073459;28;20453;-69
2023/07/03 04:55:47;;;;;;;3.83;3.50;;;16.10;99.90;;;;;;5073544;28;20222;-70
2023/07/03 04:58:13;;;;;;;5.50;2.77;;;16.30;99.90;;;;;;5073547;28;20205;-71
2023/07/03 05:00:40;;;;;;;2.30;1.63;;;16.50;99.90;;;;;;5073331;28;20451;-71
2023/07/03 05:03:05;;;;;;;3.93;2.70;;;16.60;99.90;;;;;;5073194;28;20202;-71
2023/07/03 05:05:31;;;;;;;2.70;2.60;;;16.80;99.90;;;;;;5073563;28;20439;-70
2023/07/03 05:07:57;;;;;;;2.83;2.40;;;16.90;99.50;;;;;;5073331;28;20224;-71
2023/07/03 05:10:24;;;;;;;2.43;2.23;;;17.00;99.40;;;;;;5073351;28;20430;-69
2023/07/03 05:12:51;;;;;;;3.13;2.00;;;17.30;99.30;;;;;;5073180;28;20169;-70
2023/07/03 05:15:18;;;;;;;2.97;2.73;;;17.70;98.40;;;;;;5073146;28;20440;-71
2023/07/03 05:17:49;;;;;;;7.00;2.97;;;18.00;95.20;;;;;;5073221;28;20401;-71
2023/07/03 05:20:16;;;;;;;3.73;2.60;;;18.30;95.00;;;;;;5073194;28;20420;-71
2023/07/03 05:22:43;;;;;;;4.80;1.17;;;18.60;94.60;;;;;;5073102;28;20404;-71
2023/07/03 05:25:11;;;;;;;1.73;1.63;;;19.00;93.40;;;;;;5073312;28;20406;-71
2023/07/03 05:27:37;;;;;;;2.33;1.90;;;19.30;93.60;;;;;;5072984;28;20462;-70
2023/07/03 05:30:04;;;;;;;2.60;1.97;;;19.60;93.00;;;;;;5073054;28;20424;-70
2023/07/03 05:32:30;;;;;;;2.23;1.97;;;19.80;91.30;;;;;;5075154;28;20907;-71
2023/07/03 05:34:55;;;;;;;2.00;1.13;;;19.90;92.60;;;;;;5076331;28;20404;-71
2023/07/03 05:37:21;;;;;;;1.33;1.27;;;19.90;92.70;;;;;;5076148;28;20227;-71
2023/07/03 05:39:49;;;;;;;1.90;1.80;;;19.90;91.50;;;;;;5077194;28;20234;-71
2023/07/03 05:42:19;;;;;;;7.30;1.53;;;20.00;91.80;;;;;;5076111;28;20514;-71
2023/07/03 05:44:45;;;;;;;1.67;1.57;;;19.80;91.00;;;;;;5076919;28;20756;-70
2023/07/03 05:47:12;;;;;;;2.07;1.87;;;19.80;91.80;;;;;;5076845;28;20811;-71
2023/07/03 05:49:38;;;;;;;1.50;1.40;;;19.90;92.60;;;;;;5076637;28;20424;-70
2023/07/03 05:52:05;;;;;;;3.40;1.30;;;19.90;91.30;;;;;;5076663;28;20879;-71
2023/07/03 05:54:30;;;;;;;0.93;0.90;;;19.90;90.90;;;;;;5076892;28;20411;-71
2023/07/03 05:57:04;;;;;;;2.10;1.90;;;20.00;90.20;;;;;;5076886;28;20403;-71
2023/07/03 05:59:29;;;;;;;1.50;1.40;;;20.20;90.40;;;;;;5076735;28;20178;-71
2023/07/03 06:01:56;;;;;;;4.20;2.10;;;20.30;90.30;;;;;;5076273;28;20405;-71
2023/07/03 06:04:22;;;;;;;2.40;2.23;;;20.50;90.70;;;;;;5076927;28;20162;-70
2023/07/03 06:06:55;;;;;;;2.87;1.80;;;20.60;90.80;;;;;;5076926;28;20397;-71
2023/07/03 06:09:22;;;;;;;2.17;1.40;;;20.80;87.20;;;;;;5076881;28;20508;-70
2023/07/03 06:11:48;;;;;;;4.30;1.77;;;21.10;89.50;;;;;;5075411;28;20396;-71
2023/07/03 06:14:16;;;;;;;3.30;2.60;;;21.50;88.50;;;;;;5075037;28;20759;-71
2023/07/03 06:16:42;;;;;;;1.47;1.37;;;22.00;84.50;;;;;;5075872;28;20192;-72
2023/07/03 06:19:09;;;;;;;2.30;1.50;;;22.90;95.20;;;;;;5075301;28;20404;-70
2023/07/03 06:21:35;;;;;;;3.67;2.30;;;23.20;84.10;;;;;;5074299;28;20441;-71
2023/07/03 06:24:00;;;;;;;3.83;2.33;;;24.00;79.20;;;;;;5074444;28;20901;-71
2023/07/03 06:26:29;;;;;;;1.83;1.33;;;24.40;74.10;;;;;;5076134;28;20205;-72
2023/07/03 06:28:54;;;;;;;1.77;1.67;;;25.20;89.00;;;;;;5074784;28;20656;-71
2023/07/03 06:31:20;;;;;;;1.43;1.33;;;25.00;70.80;;;;;;5076091;28;20386;-72
2023/07/03 06:33:46;;;;;;;4.13;1.60;;;25.40;71.90;;;;;;5076087;28;20206;-72
2023/07/03 06:36:14;;;;;;;1.83;1.73;;;26.10;69.50;;;;;;5076241;28;20673;-72
2023/07/03 06:38:39;;;;;;;2.97;2.10;;;26.70;65.90;;;;;;5076102;28;20170;-71
2023/07/03 06:41:05;;;;;;;1.53;1.43;;;27.80;63.30;;;;;;5075741;28;20435;-71
2023/07/03 06:43:30;;;;;;;1.60;1.40;;;28.40;58.40;;;;;;5074878;28;20626;-72
2023/07/03 06:45:56;;;;;;;3.17;2.10;;;29.50;56.90;;;;;;5076050;28;20215;-72
2023/07/03 06:48:22;;;;;;;2.50;2.07;;;30.40;54.00;;;;;;5075775;28;20201;-72
2023/07/03 06:50:47;;;;;;;1.67;1.20;;;;;;;;;;5075576;28;20205;-71
2023/07/03 06:53:13;;;;;;;4.33;2.37;;;30.00;52.70;;;;;;5075696;28;20166;-71
2023/07/03 06:55:39;;;;;;;2.30;0.93;;;29.60;53.80;;;;;;5076020;28;20521;-72
2023/07/03 06:58:04;;;;;;;1.70;1.60;;;29.50;52.40;;;;;;5075666;28;20598;-72
2023/07/03 07:00:30;;;;;;;1.53;1.43;;;29.10;53.30;;;;;;5075540;28;20196;-72
2023/07/03 07:02:55;;;;;;;1.73;1.63;;;29.00;53.20;;;;;;5075346;28;20181;-72
2023/07/03 07:05:21;;;;;;;2.23;1.43;;;29.10;54.60;;;;;;5075618;28;20197;-71
2023/07/03 07:07:47;;;;;;;1.53;1.13;;;29.40;51.50;;;;;;5075492;28;20316;-72
2023/07/03 07:10:12;;;;;;;2.30;1.83;;;29.10;53.30;;;;;;5075422;28;20189;-72
2023/07/03 07:12:38;;;;;;;1.70;1.53;;;28.10;54.10;;;;;;5075230;28;20248;-71
2023/07/03 07:15:05;;;;;;;2.03;1.83;;;27.40;53.70;;;;;;5075361;28;20310;-71
2023/07/03 07:17:30;;;;;;;2.73;2.03;;;26.90;55.90;;;;;;5075331;28;20177;-72
2023/07/03 07:19:56;;;;;;;1.47;1.23;;;26.90;56.00;;;;;;5075336;28;20435;-72
2023/07/03 07:22:22;;;;;;;3.13;1.30;;;27.10;54.80;;;;;;5074938;28;20181;-72
2023/07/03 07:24:47;;;;;;;2.40;1.83;;;26.60;54.80;;;;;;5075051;28;20630;-72
2023/07/03 07:27:13;;;;;;;4.50;1.63;;;26.60;56.70;;;;;;5074942;28;20200;-71
2023/07/03 07:29:39;;;;;;;1.37;1.27;;;26.70;56.50;;;;;;5075025;28;20213;-71
2023/07/03 07:32:06;;;;;;;1.50;1.37;;;26.30;57.00;;;;;;5074922;28;20169;-72
2023/07/03 07:34:31;;;;;;;2.20;1.33;;;26.10;56.70;;;;;;5074894;28;20528;-72
2023/07/03 07:36:57;;;;;;;4.60;1.73;;;25.70;56.50;;;;;;5075025;28;20478;-71
2023/07/03 07:39:25;;;;;;;4.10;1.83;;;25.60;56.00;;;;;;5074696;28;20186;-71
2023/07/03 07:41:55;;;;;;;1.40;1.30;;;25.30;57.50;;;;;;5074518;28;20176;-72
2023/07/03 07:44:21;;;;;;;2.37;1.50;;;25.70;58.20;;;;;;5074782;28;20406;-72
2023/07/03 07:46:46;;;;;;;2.63;1.73;;;26.10;58.60;;;;;;5074703;28;20396;-72
2023/07/03 07:49:12;;;;;;;4.10;2.10;;;27.70;70.40;;;;;;5074566;28;20392;-72
2023/07/03 07:51:39;;;;;;;3.33;2.17;;;27.70;53.90;;;;;;5074247;28;20316;-72
2023/07/03 07:54:05;;;;;;;3.93;1.80;;;28.40;55.00;;;;;;5074390;28;20165;-71
2023/07/03 07:56:32;;;;;;;0.80;0.80;;;29.40;53.00;;;;;;5074327;28;20435;-72
2023/07/03 07:58:58;;;;;;;1.90;1.60;;;30.30;63.50;;;;;;5074372;28;20434;-72
2023/07/03 08:01:24;;;;;;;2.40;1.50;;;30.40;51.70;;;;;;5074284;28;20178;-72
2023/07/03 08:03:50;;;;;;;3.27;1.50;;;31.70;48.70;;;;;;5074331;28;20961;-71
2023/07/03 08:06:16;;;;;;;4.13;1.50;;;32.20;48.10;;;;;;5074394;28;20208;-71
2023/07/03 08:08:42;;;;;;;2.30;1.47;;;32.60;46.40;;;;;;5074107;28;20205;-72
2023/07/03 08:11:09;;;;;;;1.77;1.50;;;33.00;45.20;;;;;;5074203;28;20430;-72
2023/07/03 08:13:35;;;;;;;1.50;1.40;;;33.60;44.20;;;;;;5074069;28;20408;-72
2023/07/03 08:16:01;;;;;;;4.10;1.10;;;34.30;42.60;;;;;;5074169;28;20408;-72
2023/07/03 08:18:27;;;;;;;1.73;1.50;;;34.20;42.20;;;;;;5073947;28;20944;-72
2023/07/03 08:20:53;;;;;;;1.73;1.23;;;34.50;43.10;;;;;;5073853;28;20431;-73
2023/07/03 08:23:20;;;;;;;2.03;1.70;;;34.50;41.50;;;;;;5073840;28;20186;-73
2023/07/03 08:25:51;;;;;;;1.87;1.70;;;34.70;40.40;;;;;;5073935;28;20600;-72
2023/07/03 08:28:17;;;;;;;2.00;1.53;;;35.10;40.70;;;;;;5073620;28;20550;-72
2023/07/03 08:30:43;;;;;;;4.47;1.13;;;35.70;38.50;;;;;;5073617;28;20428;-73
2023/07/03 08:33:09;;;;;;;1.77;1.17;;;35.90;40.40;;;;;;5074046;28;20400;-72
2023/07/03 08:35:34;;;;;;;3.90;1.60;;;35.50;36.70;;;;;;5073234;28;20212;-73
2023/07/03 08:38:00;;;;;;;2.03;1.60;;;34.20;39.70;;;;;;5073674;28;20177;-72
2023/07/03 08:40:26;;;;;;;3.40;1.00;;;33.10;39.70;;;;;;5073381;28;20592;-72
2023/07/03 08:42:58;;;;;;;1.13;0.80;;;32.00;43.00;;;;;;5073380;28;20498;-72
2023/07/03 08:45:45;;;;;;;1.87;1.70;;;31.30;43.70;;;;;;5073011;28;20178;-72
2023/07/03 08:48:18;;;;;;;2.40;1.60;;;30.20;43.50;;;;;;5073458;28;20455;-73
2023/07/03 08:50:51;;;;;;;1.27;0.97;;;29.40;45.70;;;;;;5073667;28;20454;-72
2023/07/03 08:53:20;;;;;;;2.90;1.30;;;29.60;46.00;;;;;;5073889;28;20683;-72
2023/07/03 08:56:01;;;;;;;2.23;1.43;;;29.10;44.60;;;;;;5073656;28;20407;-72
2023/07/03 08:58:26;;;;;;;1.90;1.47;;;28.50;47.70;;;;;;5074068;28;20408;-73
2023/07/03 09:01:21;;;;;;;3.03;1.60;;;28.90;46.20;;;;;;5073566;28;20484;-72
2023/07/03 09:04:05;;;;;;;1.03;1.00;;;29.00;46.60;;;;;;5073632;28;20173;-73
2023/07/03 09:06:55;;;;;;;1.00;1.00;;;29.50;45.40;;;;;;5073212;28;20418;-71
2023/07/03 09:09:42;;;;;;;1.67;1.53;;;30.40;46.90;;;;;;5073262;28;20446;-73
2023/07/03 09:12:17;;;;;;;1.03;0.70;;;30.10;43.80;;;;;;5072684;28;20431;-72
2023/07/03 09:15:00;;;;;;;5.13;1.47;;;29.50;45.20;;;;;;5073855;28;20410;-71
2023/07/03 09:17:26;;;;;;;1.07;0.80;;;28.10;47.40;;;;;;5071842;28;20927;-72
2023/07/03 09:19:55;;;;;;;3.80;1.73;;;27.80;47.20;;;;;;5072439;28;20420;-71
2023/07/03 09:22:42;;;;;;;2.40;1.30;;;28.40;48.10;;;;;;5072006;28;20404;-71
2023/07/03 09:25:16;;;;;;;2.10;1.40;;;28.90;49.10;;;;;;5073331;28;20406;-72
2023/07/03 09:27:44;;;;;;;1.57;0.90;;;29.30;47.20;;;;;;5073162;28;20498;-72
2023/07/03 09:30:14;;;;;;;2.47;1.53;;;28.70;45.70;;;;;;5073067;28;20835;-71
2023/07/03 09:32:40;;;;;;;1.27;0.93;;;28.90;48.70;;;;;;5073231;28;20776;-72
2023/07/03 09:35:20;;;;;;;2.50;1.03;;;29.90;47.00;;;;;;5073233;28;20396;-73
2023/07/03 09:37:50;;;;;;;0.90;0.90;;;30.40;46.60;;;;;;5073155;28;20657;-72
2023/07/03 09:40:26;;;;;;;1.27;1.17;;;29.10;44.30;;;;;;5072920;28;20463;-72
2023/07/03 09:42:53;;;;;;;1.50;1.23;;;28.00;47.70;;;;;;5072980;28;20434;-72
2023/07/03 09:45:21;;;;;;;1.87;1.13;;;27.70;48.20;;;;;;5072938;28;20400;-72
2023/07/03 09:47:52;;;;;;;1.37;1.20;;;27.50;47.80;;;;;;5073034;28;20596;-73
2023/07/03 09:50:27;;;;;;;1.33;0.90;;;28.20;48.70;;;;;;5072842;28;20791;-72
2023/07/03 09:52:57;;;;;;;2.03;1.20;;;29.30;45.90;;;;;;5072839;28;20486;-72
2023/07/03 09:55:24;;;;;;;1.53;1.40;;;29.80;47.40;;;;;;5073171;28;20762;-71
2023/07/03 09:57:50;;;;;;;1.00;0.87;;;30.10;45.40;;;;;;5072939;28;20414;-71
2023/07/03 10:00:20;;;;;;;0.90;0.90;;;30.30;44.20;;;;;;5072799;28;20462;-73
2023/07/03 10:02:50;;;;;;;2.03;1.30;;;30.30;45.00;;;;;;5072907;28;20416;-72
2023/07/03 10:05:19;;;;;;;3.30;1.43;;;30.10;44.20;;;;;;5072826;28;20446;-71
2023/07/03 10:07:46;;;;;;;2.10;1.10;;;29.60;45.50;;;;;;5072467;28;20459;-72
2023/07/03 10:10:19;;;;;;;1.70;1.10;;;28.40;45.90;;;;;;5072759;28;20924;-71
2023/07/03 10:13:03;;;;;;;1.27;0.90;;;28.30;46.50;;;;;;5072822;28;20399;-72
2023/07/03 10:15:37;;;;;;;1.17;0.77;;;27.50;47.50;;;;;;5073017;28;20416;-72
2023/07/03 10:18:20;;;;;;;2.47;1.27;;;26.60;50.60;;;;;;5074266;28;20490;-71
2023/07/03 10:20:48;;;;;;;1.30;1.20;;;27.10;50.20;;;;;;5076414;28;20431;-72
2023/07/03 10:23:23;;;;;;;1.77;1.60;;;27.90;47.60;;;;;;5076282;28;20444;-72
2023/07/03 10:25:54;;;;;;;2.73;1.57;;;28.40;46.20;;;;;;5076381;28;20431;-72
2023/07/03 10:28:33;;;;;;;1.37;1.27;;;28.40;47.90;;;;;;5076145;28;20451;-73
2023/07/03 10:31:04;;;;;;;2.77;1.60;;;28.80;46.50;;;;;;5075936;28;20503;-72
2023/07/03 10:33:35;;;;;;;1.27;1.17;;;29.70;45.80;;;;;;5074899;28;20928;-72
2023/07/03 10:36:03;;;;;;;1.30;0.80;;;29.90;45.10;;;;;;5076282;28;20529;-72
2023/07/03 10:38:29;;;;;;;2.67;1.03;;;29.90;44.40;;;;;;5076012;28;20465;-72
2023/07/03 10:41:14;;;;;;;1.43;1.00;;;30.30;44.50;;;;;;5075895;28;20440;-73
2023/07/03 10:43:47;;;;;;;1.20;1.10;;;30.40;43.90;;;;;;5076286;28;20177;-73
2023/07/03 10:46:27;;;;;;;2.93;1.40;;;29.90;44.80;;;;;;5076105;28;20419;-72
2023/07/03 10:48:55;;;;;;;0.93;0.80;;;28.90;45.30;;;;;;5075783;28;20455;-72
2023/07/03 10:52:05;;;;;;;5.53;1.90;;;28.20;48.90;;;;;;5075599;28;20759;-72
2023/07/03 10:54:44;;;;;;;3.53;1.80;;;27.60;49.50;;;;;;5075882;28;20409;-72
2023/07/03 10:57:17;;;;;;;1.10;1.00;;;27.50;47.10;;;;;;5075679;28;20915;-71
2023/07/03 10:59:47;;;;;;;1.03;0.93;;;27.40;46.90;;;;;;5075786;28;20785;-72
2023/07/03 11:02:32;;;;;;;2.83;2.13;;;27.10;49.70;;;;;;5075464;28;20404;-71
2023/07/03 11:05:34;;;;;;;1.70;1.13;;;26.90;50.20;;;;;;5075800;28;20408;-72
2023/07/03 11:08:15;;;;;;;0.97;0.83;;;26.50;50.00;;;;;;5066362;28;20461;-72
2023/07/03 11:10:43;;;;;;;2.60;1.30;;;25.80;51.30;;;;;;5075506;28;20834;-72
2023/07/03 11:13:37;;;;;;;1.43;1.33;;;25.50;52.40;;;;;;5075018;28;20393;-72
2023/07/03 11:16:02;;;;;;;1.27;0.80;;;25.30;52.10;;;;;;5075526;28;20486;-72
2023/07/03 11:18:48;;;;;;;1.90;1.30;;;25.30;54.00;;;;;;5074840;28;20473;-71
2023/07/03 11:21:43;;;;;;;0.87;0.83;;;25.10;51.30;;;;;;5075019;28;20189;-72
2023/07/03 11:24:29;;;;;;;0.70;0.70;;;25.00;53.70;;;;;;5074736;28;20407;-71
2023/07/03 11:27:15;;;;;;;2.10;1.20;;;24.90;52.40;;;;;;5075161;28;20386;-71
2023/07/03 11:29:42;;;;;;;1.10;0.93;;;24.20;52.50;;;;;;5074458;28;20441;-72
2023/07/03 11:32:09;;;;;;;0.83;0.83;;;24.00;53.60;;;;;;5074754;28;20404;-72
2023/07/03 11:34:35;;;;;;;1.40;1.30;;;24.20;54.50;;;;;;5073668;28;20906;-73
2023/07/03 11:37:21;;;;;;;2.00;1.50;;;24.20;53.60;;;;;;5074601;28;20404;-69
2023/07/03 11:39:49;;;;;;;0.97;0.80;;;24.30;55.10;;;;;;5075145;28;20432;-71
2023/07/03 11:42:23;;;;;;;2.73;0.90;;;24.50;54.50;;;;;;5074292;28;20418;-72
2023/07/03 11:44:58;;;;;;;1.47;1.20;;;24.50;55.00;;;;;;5073473;28;20915;-73
2023/07/03 11:47:30;;;;;;;1.53;1.20;;;24.10;54.20;;;;;;5072793;28;20457;-71
2023/07/03 11:50:04;;;;;;;1.20;1.10;;;23.80;54.30;;;;;;5072944;28;20453;-72
2023/07/03 11:52:35;;;;;;;1.03;1.00;;;23.80;55.30;;;;;;5074651;28;20410;-72
2023/07/03 11:55:15;;;;;;;1.30;1.07;;;24.00;56.00;;;;;;5074712;28;20401;-71
2023/07/03 11:57:43;;;;;;;1.83;1.27;;;24.40;54.50;;;;;;5074648;28;20403;-71
2023/07/03 12:00:26;;;;;;;1.00;0.97;;;24.70;53.40;;;;;;5074488;28;20431;-71
2023/07/03 12:02:53;;;;;;;0.93;0.60;;;24.80;55.40;;;;;;5074138;28;20817;-72
2023/07/03 12:05:41;;;;;;;1.00;0.67;;;25.00;55.20;;;;;;5074496;28;20414;-71
2023/07/03 12:08:11;;;;;;;2.43;2.23;;;24.90;56.40;;;;;;5074636;28;20477;-72
2023/07/03 12:10:42;;;;;;;1.00;0.70;;;25.00;57.10;;;;;;5074194;28;20510;-72
2023/07/03 12:13:45;;;;;;;3.03;1.53;;;25.20;54.20;;;;;;5074142;28;20381;-71
2023/07/03 12:16:16;;;;;;;5.00;1.37;;;25.40;51.40;;;;;;5074250;28;20385;-71
2023/07/03 12:18:42;;;;;;;1.90;1.37;;;25.20;54.10;;;;;;5074108;28;20809;-72
2023/07/03 12:21:08;;;;;;;2.10;2.00;;;24.80;54.10;;;;;;5073697;28;20431;-72
2023/07/03 12:23:42;;;;;;;0.97;0.80;;;24.40;53.00;;;;;;5074061;28;20403;-73
2023/07/03 12:26:13;;;;;;;1.10;1.10;;;24.60;54.50;;;;;;5074049;28;20215;-71
2023/07/03 12:28:41;;;;;;;0.90;0.87;;;24.90;56.90;;;;;;5074018;28;20448;-72
2023/07/03 12:31:12;;;;;;;1.07;0.97;;;25.00;53.70;;;;;;5073632;28;20402;-72
2023/07/03 12:33:59;;;;;;;1.57;1.40;;;24.90;53.20;;;;;;5073947;28;20421;-72
2023/07/03 12:36:31;;;;;;;1.23;0.70;;;24.70;51.50;;;;;;5073994;28;20374;-72
2023/07/03 12:39:09;;;;;;;1.40;1.13;;;23.90;70.00;;;;;;5073754;28;20411;-72
2023/07/03 12:41:36;;;;;;;6.27;1.33;;;24.10;54.30;;;;;;5072933;28;20404;-72
2023/07/03 12:44:02;;;;;;;2.43;0.97;;;24.20;54.40;;;;;;5073694;28;20430;-72
2023/07/03 12:46:37;;;;;;;1.77;1.37;;;24.40;53.80;;;;;;5073940;28;20913;-71
2023/07/03 12:49:04;;;;;;;2.60;1.27;;;24.60;68.20;;;;;;5073610;28;20890;-71
2023/07/03 12:51:38;;;;;;;0.80;0.80;;;24.60;53.00;;;;;;5073251;28;20413;-71
2023/07/03 12:54:06;;;;;;;1.87;1.20;;;24.40;54.40;;;;;;5073539;28;20400;-70
2023/07/03 12:56:33;;;;;;;1.77;1.67;;;24.60;53.40;;;;;;5073620;28;20961;-71
2023/07/03 12:58:59;;;;;;;0.50;0.50;;;24.80;60.90;;;;;;5073497;28;20399;-71